Flight Track Log - Related Links

Times and Time Zones

All times are in EDT time to prevent confusion due to time zone crossing. See the SWA681 flight status page for this flight to view local times or setup timezone preferences in your user account.

Time Position Orientation Groundspeed Altitude Reporting Facility
EDT Latitude Longitude Course Direction KTS MPH feet Rate Location/Type
Mon 10:06:15 PM 41.7763 -87.7080 19° North  Level FlightAware Approximate
Mon 10:07:15 PM 41.7667 -87.5425 285° West  Level FlightAware Approximate
Mon 10:08:15 PM 41.7667 -87.3757 277° West  Level FlightAware Approximate
Mon 10:09:15 PM 41.7754 -87.2093 273° West  Level FlightAware Approximate
Mon 10:10:15 PM 41.7500 -87.0498 276° West  Level FlightAware Approximate
Mon 10:11:15 PM 41.7500 -86.8830 275° West  Level FlightAware Approximate
Mon 10:12:15 PM 41.7556 -86.7165 274° West  Level FlightAware Approximate
Mon 10:13:15 PM 41.7645 -86.5501 273° West  Level FlightAware Approximate
Mon 10:14:15 PM 41.7667 -86.3833 272° West  Level FlightAware Approximate
Mon 10:15:15 PM 41.7818 -86.2186 271° West  Level FlightAware Approximate
Mon 10:16:15 PM 41.8089 -86.0557 270° West  Level FlightAware Approximate
Mon 10:18:27 PM 41.7967 -87.6983 101° East 233 268 4,000  Level Chicago Center
Mon 10:19:27 PM 41.7825 -87.5983 86° East 279 321 4,000  Level Chicago Center
Mon 10:20:27 PM 41.7872 -87.4953 87° East 279 321 4,000 900 Level Chicago Center
Mon 10:21:27 PM 41.7917 -87.3892 88° East 273 314 5,800 2,750 Climbing Chicago Center
Mon 10:22:27 PM 41.7939 -87.2806 95° East 279 321 9,500 3,350 Climbing Chicago Center
Mon 10:23:27 PM 41.7856 -87.1639 88° East 289 333 12,500 2,900 Climbing Chicago Center
Mon 10:25:27 PM 41.7944 -86.8767 83° East 368 423 18,200 3,100 Climbing Chicago Center
Mon 10:26:27 PM 41.8094 -86.7089 84° East 409 471 21,800 3,000 Climbing Chicago Center
Mon 10:27:27 PM 41.8222 -86.5494 82° East 420 483 24,200 2,200 Climbing Chicago Center
Mon 10:28:27 PM 41.8389 -86.3842 86° East 426 490 26,200 1,850 Climbing Chicago Center
Mon 10:29:27 PM 41.8489 -86.2111 83° East 450 518 27,900 1,600 Climbing Chicago Center
Mon 10:30:27 PM 41.8647 -86.0317 85° East 468 539 29,400 1,550 Climbing Chicago Center
Mon 10:31:27 PM 41.8778 -85.8442 84° East 488 562 31,000 1,350 Climbing Chicago Center
Mon 10:32:27 PM 41.8914 -85.6733 84° East 500 575 32,100 1,450 Climbing Chicago Center
Mon 10:33:27 PM 41.9056 -85.4769 86° East 512 589 33,900 1,907 Climbing Chicago Center
Mon 10:34:36 PM 41.9167 -85.2581 85° East 524 603 36,200 1,442 Climbing Cleveland Center
Mon 10:35:36 PM 41.9311 -85.0522 84° East 524 603 37,000 400 Climbing Cleveland Center
Mon 10:36:36 PM 41.9447 -84.8606 85° East 514 592 37,000  Level Cleveland Center
Mon 10:37:36 PM 41.9581 -84.6658 83° East 514 592 37,000  Level Cleveland Center
Mon 10:38:36 PM 41.9753 -84.4714 80° East 514 592 37,000  Level Cleveland Center
Mon 10:39:36 PM 42.0003 -84.2856 81° East 514 592 37,000  Level Cleveland Center
Mon 10:40:36 PM 42.0231 -84.0942 81° East 520 598 37,000  Level Cleveland Center
Mon 10:41:36 PM 42.0453 -83.9078 81° East 514 592 37,000  Level Cleveland Center
Mon 10:42:36 PM 42.0672 -83.7161 81° East 514 592 37,000  Level Cleveland Center
Mon 10:43:36 PM 42.0861 -83.5519 81° East 509 586 37,000 50 Level Cleveland Center
Mon 10:44:36 PM 42.1097 -83.3597 82° East 509 586 37,100 700 Climbing Cleveland Center
Mon 10:45:36 PM 42.1314 -83.1478 78° East 516 594 38,400 950 Climbing Cleveland Center
Mon 10:46:36 PM 42.1606 -82.9586 79° East 523 602 39,000 300 Climbing Cleveland Center
Mon 10:47:36 PM 42.1872 -82.7717 83° East 512 589 39,000  Level Cleveland Center
Mon 10:48:36 PM 42.2053 -82.5789 82° East 512 589 39,000  Level Cleveland Center
Mon 10:49:36 PM 42.2228 -82.4086 82° East 512 589 39,000  Level Cleveland Center
Mon 10:50:36 PM 42.2422 -82.2183 81° East 518 596 39,000  Level Cleveland Center
Mon 10:51:36 PM 42.2658 -82.0056 83° East 518 596 39,000  Level Cleveland Center
Mon 10:52:36 PM 42.2828 -81.8153 83° East 518 596 39,000  Level Cleveland Center
Mon 10:53:36 PM 42.3011 -81.6247 83° East 518 596 39,000  Level Cleveland Center
Mon 10:54:36 PM 42.3194 -81.4339 84° East 518 596 39,000  Level Cleveland Center
Mon 10:55:36 PM 42.3333 -81.2431 82° East 513 590 39,000  Level Cleveland Center
Mon 10:56:36 PM 42.3508 -81.0719 84° East 513 590 39,000  Level Cleveland Center
Mon 10:57:36 PM 42.3661 -80.8783 83° East 513 590 39,000  Level Cleveland Center
Mon 10:58:36 PM 42.3831 -80.6872 84° East 520 598 39,000  Level Cleveland Center
Mon 10:59:36 PM 42.3978 -80.4961 84° East 520 598 39,000  Level Cleveland Center
Mon 11:00:36 PM 42.4119 -80.3019 83° East 520 598 39,000  Level Cleveland Center
Mon 11:01:36 PM 42.4300 -80.0881 84° East 520 598 39,000  Level Cleveland Center
Mon 11:02:36 PM 42.4456 -79.8994 83° East 514 592 39,000  Level Cleveland Center
Mon 11:03:36 PM 42.4611 -79.7247 85° East 514 592 39,000  Level Cleveland Center
Mon 11:04:36 PM 42.4742 -79.5331 84° East 519 597 39,000  Level Cleveland Center
Mon 11:05:36 PM 42.4889 -79.3358 84° East 519 597 39,000  Level Cleveland Center
Mon 11:06:36 PM 42.5033 -79.1442 85° East 519 597 39,000  Level Cleveland Center
Mon 11:07:36 PM 42.5153 -78.9467 84° East 524 603 39,000  Level Cleveland Center
Mon 11:08:36 PM 42.5292 -78.7519 85° East 519 597 39,000  Level Cleveland Center
Mon 11:09:36 PM 42.5422 -78.5400 85° East 519 597 39,000  Level Cleveland Center
Mon 11:10:36 PM 42.5553 -78.3422 86° East 519 597 39,000  Level Cleveland Center
Mon 11:11:36 PM 42.5658 -78.1503 86° East 514 592 39,000  Level Cleveland Center
Mon 11:12:36 PM 42.5764 -77.9608 86° East 514 592 39,000  Level Cleveland Center
Mon 11:13:36 PM 42.5864 -77.7714 85° East 503 579 39,000  Level Cleveland Center
Mon 11:14:36 PM 42.5983 -77.5819 85° East 503 579 39,000 -646 Level Cleveland Center
Mon 11:16:51 PM 42.6239 -77.1447 87° East 515 593 36,900 -923 Descending Boston Center
Mon 11:17:51 PM 42.6314 -76.9589 86° East 505 581 36,000 -950 Descending Boston Center
Mon 11:18:51 PM 42.6411 -76.7675 85° East 500 575 35,000 -900 Descending Boston Center
Mon 11:19:51 PM 42.6514 -76.6017 87° East 493 567 34,200 -900 Descending Boston Center
Mon 11:20:51 PM 42.6581 -76.4128 86° East 500 575 33,200 -1,750 Descending Boston Center
Mon 11:21:51 PM 42.6672 -76.2100 87° East 494 568 30,700 -2,400 Descending Boston Center
Mon 11:22:51 PM 42.6753 -76.0269 87° East 488 562 28,400 -2,200 Descending Boston Center
Mon 11:23:51 PM 42.6828 -75.8494 87° East 488 562 26,300 -2,100 Descending Boston Center
Mon 11:24:51 PM 42.6894 -75.6917 88° East 468 539 24,200 -2,100 Descending Boston Center
Mon 11:25:51 PM 42.6942 -75.5250 87° East 455 524 22,100 -2,050 Descending Boston Center
Mon 11:26:51 PM 42.7006 -75.3614 87° East 434 499 20,100 -1,950 Descending Boston Center
Mon 11:27:51 PM 42.7067 -75.2036 87° East 428 493 18,200 -2,000 Descending Boston Center
Mon 11:28:51 PM 42.7122 -75.0456 88° East 418 481 16,100 -2,236 Descending Boston Center
Mon 11:29:41 PM 42.7156 -74.8958 87° East 410 472 14,100 -2,182 Descending Boston Center
Mon 11:30:30 PM 42.7200 -74.7858 88° East 400 460 12,500 -1,617 Descending Boston Center
Mon 11:31:36 PM 42.7233 -74.6275 87° East 376 433 11,000 -709 Descending Boston Center
Mon 11:32:37 PM 42.7278 -74.4950 78° East 325 374 11,000 -541 Level Boston Center
Mon 11:33:38 PM 42.7467 -74.3739 68° East 323 372 9,900 -1,636 Descending Boston Center
Mon 11:34:38 PM 42.7797 -74.2647 68° East 322 371 7,700 -1,835 Descending Boston Center
Mon 11:35:39 PM 42.8125 -74.1553 68° East 313 360 6,200 -1,826 Descending Boston Center
Mon 11:36:33 PM 42.8389 -74.0653 84° East 271 312 4,200 -1,722 Descending Boston Center
Mon 11:37:34 PM 42.8464 -73.9750 72° East 220 253 2,900 10,783 Descending Boston Center
Mon 11:38:51 PM 42.8750 -73.8567 75° East 251 289 29,000 11,431 Climbing Boston Center
Mon 11:39:51 PM 42.8928 -73.7636 209° Southwest 251 289 29,000 -15,714 Level Boston Center
Mon 11:40:36 PM 42.8214 -73.8186 169° South 125 144 1,500 -16,057 Descending Boston Center
Mon 11:41:36 PM 42.7881 -73.8094 51° Northeast 126 145 900 12,222 Descending Boston Center
Mon 11:42:51 PM 42.9261 -73.5800 51° Northeast 251 289 29,000 22,480 Climbing Boston Center

Login

Don't have an account? Register now (free) for customized features, flight alerts, and more!